sensor_id;sensor_type;location;lat;lon;timestamp;pressure;altitude;pressure_sealevel;temperature;humidity
59971;BME280;45825;45.434;9.116;2022-12-18T00:02:03;101443.47;;;6.23;100.00
59971;BME280;45825;45.434;9.116;2022-12-18T00:04:29;101442.41;;;6.34;100.00
59971;BME280;45825;45.434;9.116;2022-12-18T00:06:54;101444.94;;;6.40;100.00
59971;BME280;45825;45.434;9.116;2022-12-18T00:09:20;101444.25;;;6.28;100.00
59971;BME280;45825;45.434;9.116;2022-12-18T00:11:45;101452.22;;;6.21;100.00
59971;BME280;45825;45.434;9.116;2022-12-18T00:14:12;101448.63;;;6.28;100.00
59971;BME280;45825;45.434;9.116;2022-12-18T00:16:38;101458.03;;;6.38;100.00
59971;BME280;45825;45.434;9.116;2022-12-18T00:19:04;101451.31;;;6.25;100.00
59971;BME280;45825;45.434;9.116;2022-12-18T00:21:32;101455.63;;;6.26;100.00
59971;BME280;45825;45.434;9.116;2022-12-18T00:23:59;101460.13;;;6.18;100.00
59971;BME280;45825;45.434;9.116;2022-12-18T00:26:30;101454.16;;;6.09;100.00
59971;BME280;45825;45.434;9.116;2022-12-18T00:28:59;101455.00;;;6.13;100.00
59971;BME280;45825;45.434;9.116;2022-12-18T00:31:25;101464.44;;;6.20;100.00
59971;BME280;45825;45.434;9.116;2022-12-18T00:33:51;101469.03;;;6.06;100.00
59971;BME280;45825;45.434;9.116;2022-12-18T00:36:18;101469.53;;;5.75;100.00
59971;BME280;45825;45.434;9.116;2022-12-18T00:38:45;101478.28;;;5.72;100.00
59971;BME280;45825;45.434;9.116;2022-12-18T00:41:12;101479.75;;;5.88;100.00
59971;BME280;45825;45.434;9.116;2022-12-18T00:43:38;101482.50;;;5.81;100.00
59971;BME280;45825;45.434;9.116;2022-12-18T00:46:04;101486.75;;;5.88;100.00
59971;BME280;45825;45.434;9.116;2022-12-18T00:48:29;101486.38;;;5.55;100.00
59971;BME280;45825;45.434;9.116;2022-12-18T00:50:55;101495.81;;;5.62;100.00
59971;BME280;45825;45.434;9.116;2022-12-18T00:53:21;101497.47;;;5.69;100.00
59971;BME280;45825;45.434;9.116;2022-12-18T00:55:46;101506.34;;;5.57;100.00
59971;BME280;45825;45.434;9.116;2022-12-18T00:58:13;101520.53;;;5.39;100.00
59971;BME280;45825;45.434;9.116;2022-12-18T01:00:38;101525.94;;;5.25;100.00
59971;BME280;45825;45.434;9.116;2022-12-18T01:03:04;101524.78;;;5.47;100.00
59971;BME280;45825;45.434;9.116;2022-12-18T01:05:29;101537.06;;;5.40;100.00
59971;BME280;45825;45.434;9.116;2022-12-18T01:07:56;101539.69;;;5.40;100.00
59971;BME280;45825;45.434;9.116;2022-12-18T01:10:22;101543.06;;;5.47;100.00
59971;BME280;45825;45.434;9.116;2022-12-18T01:12:47;101541.47;;;5.35;100.00
59971;BME280;45825;45.434;9.116;2022-12-18T01:15:14;101545.97;;;5.25;100.00
59971;BME280;45825;45.434;9.116;2022-12-18T01:17:39;101537.25;;;5.24;100.00
59971;BME280;45825;45.434;9.116;2022-12-18T01:20:05;101548.78;;;5.08;100.00
59971;BME280;45825;45.434;9.116;2022-12-18T01:22:31;101554.69;;;5.22;100.00
59971;BME280;45825;45.434;9.116;2022-12-18T01:24:56;101553.78;;;5.23;100.00
59971;BME280;45825;45.434;9.116;2022-12-18T01:27:22;101566.09;;;5.13;100.00
59971;BME280;45825;45.434;9.116;2022-12-18T01:29:47;101567.94;;;5.05;100.00
59971;BME280;45825;45.434;9.116;2022-12-18T01:32:12;101580.97;;;5.05;100.00
59971;BME280;45825;45.434;9.116;2022-12-18T01:34:38;101590.53;;;5.06;100.00
59971;BME280;45825;45.434;9.116;2022-12-18T01:37:04;101594.81;;;5.13;100.00
59971;BME280;45825;45.434;9.116;2022-12-18T01:39:30;101594.94;;;5.01;100.00
59971;BME280;45825;45.434;9.116;2022-12-18T01:41:57;101604.69;;;4.85;100.00
59971;BME280;45825;45.434;9.116;2022-12-18T01:47:52;101607.19;;;4.94;100.00
59971;BME280;45825;45.434;9.116;2022-12-18T01:50:45;101609.84;;;4.89;100.00
59971;BME280;45825;45.434;9.116;2022-12-18T01:53:14;101602.91;;;4.87;100.00
59971;BME280;45825;45.434;9.116;2022-12-18T01:55:45;101613.34;;;4.85;100.00
59971;BME280;45825;45.434;9.116;2022-12-18T01:58:11;101607.34;;;4.80;100.00
59971;BME280;45825;45.434;9.116;2022-12-18T02:00:37;101607.38;;;4.74;100.00
59971;BME280;45825;45.434;9.116;2022-12-18T02:03:02;101612.47;;;4.88;100.00
59971;BME280;45825;45.434;9.116;2022-12-18T02:05:34;101618.47;;;4.95;100.00
59971;BME280;45825;45.434;9.116;2022-12-18T02:10:32;101623.53;;;5.12;100.00
59971;BME280;45825;45.434;9.116;2022-12-18T02:16:07;101617.31;;;5.24;100.00
59971;BME280;45825;45.434;9.116;2022-12-18T02:18:41;101618.34;;;5.10;100.00
59971;BME280;45825;45.434;9.116;2022-12-18T02:21:15;101626.38;;;4.88;100.00
59971;BME280;45825;45.434;9.116;2022-12-18T02:24:27;101624.50;;;5.01;100.00
59971;BME280;45825;45.434;9.116;2022-12-18T02:27:05;101626.25;;;4.99;100.00
59971;BME280;45825;45.434;9.116;2022-12-18T02:29:40;101615.88;;;4.96;100.00
59971;BME280;45825;45.434;9.116;2022-12-18T02:32:14;101608.00;;;5.01;100.00
59971;BME280;45825;45.434;9.116;2022-12-18T02:34:42;101608.91;;;4.97;100.00
59971;BME280;45825;45.434;9.116;2022-12-18T02:37:11;101612.97;;;5.21;100.00
59971;BME280;45825;45.434;9.116;2022-12-18T02:39:40;101607.13;;;5.00;100.00
59971;BME280;45825;45.434;9.116;2022-12-18T02:42:06;101603.63;;;5.05;100.00
59971;BME280;45825;45.434;9.116;2022-12-18T02:44:34;101610.50;;;5.10;100.00
59971;BME280;45825;45.434;9.116;2022-12-18T02:47:01;101608.94;;;4.95;100.00
59971;BME280;45825;45.434;9.116;2022-12-18T02:49:48;101614.06;;;5.01;100.00
59971;BME280;45825;45.434;9.116;2022-12-18T02:57:49;101635.97;;;4.85;100.00
59971;BME280;45825;45.434;9.116;2022-12-18T03:00:33;101646.41;;;4.83;100.00
59971;BME280;45825;45.434;9.116;2022-12-18T03:08:25;101647.66;;;4.40;100.00
59971;BME280;45825;45.434;9.116;2022-12-18T03:11:05;101646.47;;;4.79;100.00
59971;BME280;45825;45.434;9.116;2022-12-18T03:13:52;101655.94;;;4.89;100.00
59971;BME280;45825;45.434;9.116;2022-12-18T03:16:25;101654.16;;;4.94;100.00
59971;BME280;45825;45.434;9.116;2022-12-18T03:19:01;101652.41;;;4.95;100.00
59971;BME280;45825;45.434;9.116;2022-12-18T03:21:37;101649.88;;;4.87;100.00
59971;BME280;45825;45.434;9.116;2022-12-18T03:24:06;101652.44;;;4.92;100.00
59971;BME280;45825;45.434;9.116;2022-12-18T03:26:33;101654.13;;;4.96;100.00
59971;BME280;45825;45.434;9.116;2022-12-18T03:29:06;101660.19;;;5.01;100.00
59971;BME280;45825;45.434;9.116;2022-12-18T03:31:33;101657.69;;;4.88;100.00
59971;BME280;45825;45.434;9.116;2022-12-18T03:34:01;101662.13;;;4.79;100.00
59971;BME280;45825;45.434;9.116;2022-12-18T03:36:29;101661.94;;;4.96;100.00
59971;BME280;45825;45.434;9.116;2022-12-18T03:38:57;101662.78;;;5.01;100.00
59971;BME280;45825;45.434;9.116;2022-12-18T03:41:32;101663.59;;;5.08;100.00
59971;BME280;45825;45.434;9.116;2022-12-18T03:44:14;101667.03;;;5.10;100.00
59971;BME280;45825;45.434;9.116;2022-12-18T03:47:16;101672.34;;;5.00;100.00
59971;BME280;45825;45.434;9.116;2022-12-18T03:54:45;101666.53;;;4.72;100.00
59971;BME280;45825;45.434;9.116;2022-12-18T03:57:20;101676.84;;;4.84;100.00
59971;BME280;45825;45.434;9.116;2022-12-18T03:59:49;101688.13;;;4.88;100.00
59971;BME280;45825;45.434;9.116;2022-12-18T04:02:17;101687.28;;;4.86;100.00
59971;BME280;45825;45.434;9.116;2022-12-18T04:04:43;101688.09;;;4.91;100.00
59971;BME280;45825;45.434;9.116;2022-12-18T04:07:10;101678.53;;;4.93;100.00
59971;BME280;45825;45.434;9.116;2022-12-18T04:09:36;101680.19;;;5.00;100.00
59971;BME280;45825;45.434;9.116;2022-12-18T04:12:03;101683.75;;;4.93;100.00
59971;BME280;45825;45.434;9.116;2022-12-18T04:14:29;101691.50;;;4.98;100.00
59971;BME280;45825;45.434;9.116;2022-12-18T04:16:54;101708.91;;;4.99;100.00
59971;BME280;45825;45.434;9.116;2022-12-18T04:19:19;101699.53;;;4.71;100.00
59971;BME280;45825;45.434;9.116;2022-12-18T04:21:45;101697.84;;;4.69;100.00
59971;BME280;45825;45.434;9.116;2022-12-18T04:24:10;101698.56;;;4.88;100.00
59971;BME280;45825;45.434;9.116;2022-12-18T04:26:35;101705.59;;;4.78;100.00
59971;BME280;45825;45.434;9.116;2022-12-18T04:29:01;101696.09;;;4.71;100.00
59971;BME280;45825;45.434;9.116;2022-12-18T04:31:26;101706.59;;;4.60;100.00
59971;BME280;45825;45.434;9.116;2022-12-18T04:33:51;101704.13;;;4.40;100.00
59971;BME280;45825;45.434;9.116;2022-12-18T04:36:17;101704.97;;;4.43;100.00
59971;BME280;45825;45.434;9.116;2022-12-18T04:38:43;101710.06;;;4.59;100.00
59971;BME280;45825;45.434;9.116;2022-12-18T04:41:08;101706.53;;;4.72;100.00
59971;BME280;45825;45.434;9.116;2022-12-18T04:43:33;101722.03;;;4.86;100.00
59971;BME280;45825;45.434;9.116;2022-12-18T04:46:05;101736.88;;;4.83;100.00
59971;BME280;45825;45.434;9.116;2022-12-18T04:48:31;101729.06;;;4.78;100.00
59971;BME280;45825;45.434;9.116;2022-12-18T04:50:57;101742.19;;;4.66;100.00
59971;BME280;45825;45.434;9.116;2022-12-18T04:53:22;101745.59;;;4.77;100.00
59971;BME280;45825;45.434;9.116;2022-12-18T04:55:47;101749.03;;;4.81;100.00
59971;BME280;45825;45.434;9.116;2022-12-18T04:58:13;101745.50;;;4.86;100.00
59971;BME280;45825;45.434;9.116;2022-12-18T05:00:38;101743.88;;;4.74;100.00
59971;BME280;45825;45.434;9.116;2022-12-18T05:03:03;101747.34;;;4.77;100.00
59971;BME280;45825;45.434;9.116;2022-12-18T05:05:29;101752.63;;;4.63;100.00
59971;BME280;45825;45.434;9.116;2022-12-18T05:07:54;101756.09;;;4.65;100.00
59971;BME280;45825;45.434;9.116;2022-12-18T05:10:19;101754.41;;;4.60;100.00
59971;BME280;45825;45.434;9.116;2022-12-18T05:12:45;101761.38;;;4.58;100.00
59971;BME280;45825;45.434;9.116;2022-12-18T05:15:29;101770.78;;;4.81;100.00
59971;BME280;45825;45.434;9.116;2022-12-18T05:17:55;101769.00;;;4.85;100.00
59971;BME280;45825;45.434;9.116;2022-12-18T05:20:21;101775.28;;;4.56;100.00
59971;BME280;45825;45.434;9.116;2022-12-18T05:22:47;101782.19;;;4.66;100.00
59971;BME280;45825;45.434;9.116;2022-12-18T05:25:12;101787.31;;;4.80;100.00
59971;BME280;45825;45.434;9.116;2022-12-18T05:27:37;101798.41;;;5.09;100.00
59971;BME280;45825;45.434;9.116;2022-12-18T05:30:03;101786.31;;;4.98;100.00
59971;BME280;45825;45.434;9.116;2022-12-18T05:32:28;101790.72;;;4.87;100.00
59971;BME280;45825;45.434;9.116;2022-12-18T05:34:53;101786.34;;;4.94;100.00
59971;BME280;45825;45.434;9.116;2022-12-18T05:37:19;101786.25;;;5.05;100.00
59971;BME280;45825;45.434;9.116;2022-12-18T05:39:44;101787.94;;;5.12;100.00
59971;BME280;45825;45.434;9.116;2022-12-18T05:42:09;101797.53;;;5.07;100.00
59971;BME280;45825;45.434;9.116;2022-12-18T05:44:35;101796.69;;;5.03;100.00
59971;BME280;45825;45.434;9.116;2022-12-18T05:47:00;101794.13;;;4.98;100.00
59971;BME280;45825;45.434;9.116;2022-12-18T05:49:26;101801.09;;;4.96;100.00
59971;BME280;45825;45.434;9.116;2022-12-18T05:51:51;101797.72;;;4.83;100.00
59971;BME280;45825;45.434;9.116;2022-12-18T05:54:16;101806.41;;;4.84;100.00
59971;BME280;45825;45.434;9.116;2022-12-18T05:56:41;101807.22;;;4.87;100.00
59971;BME280;45825;45.434;9.116;2022-12-18T05:59:07;101808.09;;;4.93;100.00
59971;BME280;45825;45.434;9.116;2022-12-18T06:01:32;101810.69;;;4.93;100.00
59971;BME280;45825;45.434;9.116;2022-12-18T06:03:57;101817.59;;;4.98;100.00
59971;BME280;45825;45.434;9.116;2022-12-18T06:06:25;101813.34;;;4.89;100.00
59971;BME280;45825;45.434;9.116;2022-12-18T06:08:51;101814.19;;;4.93;100.00
59971;BME280;45825;45.434;9.116;2022-12-18T06:11:19;101820.19;;;5.01;100.00
59971;BME280;45825;45.434;9.116;2022-12-18T06:13:45;101826.22;;;5.11;100.00
59971;BME280;45825;45.434;9.116;2022-12-18T06:16:11;101823.59;;;5.08;100.00
59971;BME280;45825;45.434;9.116;2022-12-18T06:18:37;101832.28;;;5.13;100.00
59971;BME280;45825;45.434;9.116;2022-12-18T06:21:02;101830.59;;;5.06;100.00
59971;BME280;45825;45.434;9.116;2022-12-18T06:23:28;101827.06;;;5.13;100.00
59971;BME280;45825;45.434;9.116;2022-12-18T06:25:53;101832.22;;;5.23;100.00
59971;BME280;45825;45.434;9.116;2022-12-18T06:28:19;101840.22;;;5.01;100.00
59971;BME280;45825;45.434;9.116;2022-12-18T06:30:46;101838.50;;;4.92;100.00
59971;BME280;45825;45.434;9.116;2022-12-18T06:33:12;101849.81;;;4.94;100.00
59971;BME280;45825;45.434;9.116;2022-12-18T06:35:37;101848.94;;;4.92;100.00
59971;BME280;45825;45.434;9.116;2022-12-18T06:38:02;101850.59;;;5.10;100.00
59971;BME280;45825;45.434;9.116;2022-12-18T06:40:28;101854.03;;;5.12;100.00
59971;BME280;45825;45.434;9.116;2022-12-18T06:42:54;101852.31;;;5.08;100.00
59971;BME280;45825;45.434;9.116;2022-12-18T06:45:19;101854.78;;;5.25;100.00
59971;BME280;45825;45.434;9.116;2022-12-18T06:47:45;101859.34;;;4.98;100.00
59971;BME280;45825;45.434;9.116;2022-12-18T06:50:11;101864.69;;;4.77;100.00
59971;BME280;45825;45.434;9.116;2022-12-18T06:52:37;101865.59;;;4.71;100.00
59971;BME280;45825;45.434;9.116;2022-12-18T06:55:04;101874.31;;;4.68;100.00
59971;BME280;45825;45.434;9.116;2022-12-18T06:57:30;101874.34;;;4.62;100.00
59971;BME280;45825;45.434;9.116;2022-12-18T06:59:55;101882.16;;;4.60;100.00
59971;BME280;45825;45.434;9.116;2022-12-18T07:02:20;101877.88;;;4.50;100.00
59971;BME280;45825;45.434;9.116;2022-12-18T07:04:45;101884.78;;;4.62;100.00
59971;BME280;45825;45.434;9.116;2022-12-18T07:07:11;101898.72;;;4.56;100.00
59971;BME280;45825;45.434;9.116;2022-12-18T07:09:36;101894.34;;;4.57;100.00
59971;BME280;45825;45.434;9.116;2022-12-18T07:12:02;101907.38;;;4.63;100.00
59971;BME280;45825;45.434;9.116;2022-12-18T07:14:27;101895.22;;;4.50;100.00
59971;BME280;45825;45.434;9.116;2022-12-18T07:16:54;101901.28;;;4.58;100.00
59971;BME280;45825;45.434;9.116;2022-12-18T07:19:19;101917.84;;;4.49;100.00
59971;BME280;45825;45.434;9.116;2022-12-18T07:21:44;101917.81;;;4.58;100.00
59971;BME280;45825;45.434;9.116;2022-12-18T07:24:10;101929.94;;;4.73;100.00
59971;BME280;45825;45.434;9.116;2022-12-18T07:26:35;101922.22;;;4.47;100.00
59971;BME280;45825;45.434;9.116;2022-12-18T07:29:00;101925.66;;;4.55;100.00
59971;BME280;45825;45.434;9.116;2022-12-18T07:31:27;101925.59;;;4.72;100.00
59971;BME280;45825;45.434;9.116;2022-12-18T07:33:52;101928.94;;;4.96;100.00
59971;BME280;45825;45.434;9.116;2022-12-18T07:36:18;101929.78;;;5.03;100.00
59971;BME280;45825;45.434;9.116;2022-12-18T07:38:46;101939.41;;;4.87;100.00
59971;BME280;45825;45.434;9.116;2022-12-18T07:41:13;101946.41;;;4.83;100.00
59971;BME280;45825;45.434;9.116;2022-12-18T07:43:38;101958.56;;;4.86;100.00
59971;BME280;45825;45.434;9.116;2022-12-18T07:46:05;101967.22;;;4.99;100.00
59971;BME280;45825;45.434;9.116;2022-12-18T07:48:30;101976.88;;;4.73;100.00
59971;BME280;45825;45.434;9.116;2022-12-18T07:51:00;101981.25;;;4.65;100.00
59971;BME280;45825;45.434;9.116;2022-12-18T07:53:26;101984.69;;;4.78;100.00
59971;BME280;45825;45.434;9.116;2022-12-18T07:55:58;101988.19;;;4.65;100.00
59971;BME280;45825;45.434;9.116;2022-12-18T07:58:24;101989.94;;;4.58;100.00
59971;BME280;45825;45.434;9.116;2022-12-18T08:00:49;101997.75;;;4.64;100.00
59971;BME280;45825;45.434;9.116;2022-12-18T08:03:14;102007.34;;;4.50;100.00
59971;BME280;45825;45.434;9.116;2022-12-18T08:05:40;102001.28;;;4.46;100.00
59971;BME280;45825;45.434;9.116;2022-12-18T08:08:05;102001.28;;;4.46;100.00
59971;BME280;45825;45.434;9.116;2022-12-18T08:10:31;102006.50;;;4.41;100.00
59971;BME280;45825;45.434;9.116;2022-12-18T08:12:56;101999.50;;;4.64;100.00
59971;BME280;45825;45.434;9.116;2022-12-18T08:15:21;102000.41;;;4.56;100.00
59971;BME280;45825;45.434;9.116;2022-12-18T08:17:47;102010.78;;;4.78;100.00
59971;BME280;45825;45.434;9.116;2022-12-18T08:20:12;102013.28;;;4.98;100.00
59971;BME280;45825;45.434;9.116;2022-12-18T08:22:40;102012.41;;;4.99;100.00
59971;BME280;45825;45.434;9.116;2022-12-18T08:25:06;102022.84;;;5.06;100.00
59971;BME280;45825;45.434;9.116;2022-12-18T08:27:32;102019.34;;;5.10;100.00
59971;BME280;45825;45.434;9.116;2022-12-18T08:29:57;102018.44;;;5.17;100.00
59971;BME280;45825;45.434;9.116;2022-12-18T08:32:24;102014.88;;;5.32;100.00
59971;BME280;45825;45.434;9.116;2022-12-18T08:34:50;102018.44;;;5.11;100.00
59971;BME280;45825;45.434;9.116;2022-12-18T08:37:15;102028.84;;;5.25;100.00
59971;BME280;45825;45.434;9.116;2022-12-18T08:39:40;102027.13;;;5.19;100.00
59971;BME280;45825;45.434;9.116;2022-12-18T08:42:06;102030.56;;;5.24;100.00
59971;BME280;45825;45.434;9.116;2022-12-18T08:44:50;102023.53;;;5.36;100.00
59971;BME280;45825;45.434;9.116;2022-12-18T08:47:15;102025.31;;;5.32;100.00
59971;BME280;45825;45.434;9.116;2022-12-18T08:49:40;102026.19;;;5.28;100.00
59971;BME280;45825;45.434;9.116;2022-12-18T08:52:06;102032.28;;;5.31;100.00
59971;BME280;45825;45.434;9.116;2022-12-18T08:54:31;102027.81;;;5.54;100.00
59971;BME280;45825;45.434;9.116;2022-12-18T08:56:56;102020.88;;;5.48;100.00
59971;BME280;45825;45.434;9.116;2022-12-18T08:59:22;102021.84;;;5.31;100.00
59971;BME280;45825;45.434;9.116;2022-12-18T09:01:48;102032.34;;;5.13;100.00
59971;BME280;45825;45.434;9.116;2022-12-18T09:04:13;102041.91;;;5.22;100.00
59971;BME280;45825;45.434;9.116;2022-12-18T09:06:39;102045.41;;;5.21;100.00
59971;BME280;45825;45.434;9.116;2022-12-18T09:09:05;102048.00;;;5.19;100.00
59971;BME280;45825;45.434;9.116;2022-12-18T09:11:31;102055.81;;;5.17;100.00
59971;BME280;45825;45.434;9.116;2022-12-18T09:13:58;102044.53;;;5.09;100.00
59971;BME280;45825;45.434;9.116;2022-12-18T09:16:24;102064.47;;;5.37;100.00
59971;BME280;45825;45.434;9.116;2022-12-18T09:18:50;102062.72;;;5.39;100.00
59971;BME280;45825;45.434;9.116;2022-12-18T09:21:20;102062.72;;;5.39;100.00
59971;BME280;45825;45.434;9.116;2022-12-18T09:23:53;102071.44;;;5.33;100.00
59971;BME280;45825;45.434;9.116;2022-12-18T09:26:20;102077.47;;;5.44;100.00
59971;BME280;45825;45.434;9.116;2022-12-18T09:28:46;102076.66;;;5.33;100.00
59971;BME280;45825;45.434;9.116;2022-12-18T09:31:12;102079.22;;;5.39;100.00
59971;BME280;45825;45.434;9.116;2022-12-18T09:33:38;102071.41;;;5.41;100.00
59971;BME280;45825;45.434;9.116;2022-12-18T09:36:05;102075.72;;;5.47;100.00
59971;BME280;45825;45.434;9.116;2022-12-18T09:38:32;102073.91;;;5.56;100.00
59971;BME280;45825;45.434;9.116;2022-12-18T09:41:46;102073.84;;;5.69;100.00
59971;BME280;45825;45.434;9.116;2022-12-18T09:43:57;102062.53;;;5.68;100.00
59971;BME280;45825;45.434;9.116;2022-12-18T09:46:27;102060.84;;;5.59;100.00
59971;BME280;45825;45.434;9.116;2022-12-18T09:48:57;102063.34;;;5.73;100.00
59971;BME280;45825;45.434;9.116;2022-12-18T09:51:28;102059.84;;;5.81;100.00
59971;BME280;45825;45.434;9.116;2022-12-18T09:54:07;102061.53;;;5.88;100.00
59971;BME280;45825;45.434;9.116;2022-12-18T09:56:38;102064.06;;;6.00;100.00
59971;BME280;45825;45.434;9.116;2022-12-18T09:59:05;102057.94;;;6.06;100.00
59971;BME280;45825;45.434;9.116;2022-12-18T10:01:31;102061.47;;;6.02;100.00
59971;BME280;45825;45.434;9.116;2022-12-18T10:03:57;102060.53;;;6.09;100.00
59971;BME280;45825;45.434;9.116;2022-12-18T10:06:32;102063.16;;;6.12;100.00
59971;BME280;45825;45.434;9.116;2022-12-18T10:09:13;102060.59;;;6.01;100.00
59971;BME280;45825;45.434;9.116;2022-12-18T10:12:07;102060.53;;;6.12;100.00
59971;BME280;45825;45.434;9.116;2022-12-18T10:17:12;102058.91;;;5.90;100.00
59971;BME280;45825;45.434;9.116;2022-12-18T10:19:53;102057.97;;;5.97;100.00
59971;BME280;45825;45.434;9.116;2022-12-18T10:25:17;102052.59;;;6.22;100.00
59971;BME280;45825;45.434;9.116;2022-12-18T17:18:57;102059.47;;;4.70;100.00
59971;BME280;45825;45.434;9.116;2022-12-18T17:21:22;102051.59;;;4.87;100.00
59971;BME280;45825;45.434;9.116;2022-12-18T17:23:47;102061.13;;;4.96;100.00
59971;BME280;45825;45.434;9.116;2022-12-18T17:26:13;102055.88;;;5.05;100.00
59971;BME280;45825;45.434;9.116;2022-12-18T17:28:39;102062.78;;;5.18;100.00
59971;BME280;45825;45.434;9.116;2022-12-18T17:31:12;102059.34;;;5.15;100.00
59971;BME280;45825;45.434;9.116;2022-12-18T17:33:38;102056.72;;;5.13;100.00
59971;BME280;45825;45.434;9.116;2022-12-18T17:36:04;102063.63;;;5.22;100.00
59971;BME280;45825;45.434;9.116;2022-12-18T17:38:30;102070.59;;;5.25;100.00
59971;BME280;45825;45.434;9.116;2022-12-18T17:41:03;102064.50;;;5.32;100.00
59971;BME280;45825;45.434;9.116;2022-12-18T17:43:29;102064.47;;;5.30;100.00
59971;BME280;45825;45.434;9.116;2022-12-18T17:45:55;102064.50;;;5.27;100.00
59971;BME280;45825;45.434;9.116;2022-12-18T17:48:20;102061.94;;;5.12;100.00
59971;BME280;45825;45.434;9.116;2022-12-18T17:50:45;102072.41;;;5.06;100.00
59971;BME280;45825;45.434;9.116;2022-12-18T17:53:11;102064.50;;;5.24;100.00
59971;BME280;45825;45.434;9.116;2022-12-18T17:55:36;102067.09;;;5.24;100.00
59971;BME280;45825;45.434;9.116;2022-12-18T17:58:02;102070.63;;;5.15;100.00
59971;BME280;45825;45.434;9.116;2022-12-18T18:00:27;102065.41;;;5.22;100.00
59971;BME280;45825;45.434;9.116;2022-12-18T18:02:53;102066.28;;;5.16;100.00
59971;BME280;45825;45.434;9.116;2022-12-18T18:05:18;102069.72;;;5.24;100.00
59971;BME280;45825;45.434;9.116;2022-12-18T18:07:44;102069.72;;;5.26;100.00
59971;BME280;45825;45.434;9.116;2022-12-18T18:10:09;102073.22;;;5.22;100.00
59971;BME280;45825;45.434;9.116;2022-12-18T18:12:35;102070.63;;;5.17;100.00
59971;BME280;45825;45.434;9.116;2022-12-18T18:15:19;102055.84;;;5.21;100.00
59971;BME280;45825;45.434;9.116;2022-12-18T18:17:45;102064.53;;;5.23;100.00
59971;BME280;45825;45.434;9.116;2022-12-18T18:20:11;102069.72;;;5.32;100.00
59971;BME280;45825;45.434;9.116;2022-12-18T18:22:36;102069.66;;;5.38;100.00
59971;BME280;45825;45.434;9.116;2022-12-18T18:25:02;102064.47;;;5.34;100.00
59971;BME280;45825;45.434;9.116;2022-12-18T18:27:28;102052.34;;;5.20;100.00
59971;BME280;45825;45.434;9.116;2022-12-18T18:29:55;102081.03;;;5.31;100.00
59971;BME280;45825;45.434;9.116;2022-12-18T18:32:20;102080.97;;;5.37;100.00
59971;BME280;45825;45.434;9.116;2022-12-18T18:34:46;102083.63;;;5.34;100.00
59971;BME280;45825;45.434;9.116;2022-12-18T18:37:11;102088.78;;;5.42;100.00
59971;BME280;45825;45.434;9.116;2022-12-18T18:39:37;102096.59;;;5.45;100.00
59971;BME280;45825;45.434;9.116;2022-12-18T18:42:02;102094.06;;;5.34;100.00
59971;BME280;45825;45.434;9.116;2022-12-18T18:44:28;102094.91;;;5.38;100.00
59971;BME280;45825;45.434;9.116;2022-12-18T18:46:54;102106.19;;;5.44;100.00
59971;BME280;45825;45.434;9.116;2022-12-18T18:49:20;102105.31;;;5.45;100.00
59971;BME280;45825;45.434;9.116;2022-12-18T18:51:45;102102.75;;;5.33;100.00
59971;BME280;45825;45.434;9.116;2022-12-18T18:54:10;102098.44;;;5.26;100.00
59971;BME280;45825;45.434;9.116;2022-12-18T18:56:36;102105.38;;;5.27;100.00
59971;BME280;45825;45.434;9.116;2022-12-18T18:59:01;102107.97;;;5.30;100.00
59971;BME280;45825;45.434;9.116;2022-12-18T19:01:26;102114.91;;;5.37;100.00
59971;BME280;45825;45.434;9.116;2022-12-18T19:03:52;102114.00;;;5.48;100.00
59971;BME280;45825;45.434;9.116;2022-12-18T19:06:23;102106.19;;;5.49;100.00
59971;BME280;45825;45.434;9.116;2022-12-18T19:08:51;102104.41;;;5.56;100.00
59971;BME280;45825;45.434;9.116;2022-12-18T19:11:18;102116.56;;;5.62;100.00
59971;BME280;45825;45.434;9.116;2022-12-18T19:14:04;102113.09;;;5.59;100.00
59971;BME280;45825;45.434;9.116;2022-12-18T19:16:31;102112.25;;;5.53;100.00
59971;BME280;45825;45.434;9.116;2022-12-18T19:18:56;102115.72;;;5.55;100.00
59971;BME280;45825;45.434;9.116;2022-12-18T19:21:22;102113.91;;;5.65;100.00
59971;BME280;45825;45.434;9.116;2022-12-18T19:23:48;102118.28;;;5.67;100.00
59971;BME280;45825;45.434;9.116;2022-12-18T19:26:15;102115.63;;;5.70;100.00
59971;BME280;45825;45.434;9.116;2022-12-18T19:28:40;102106.97;;;5.57;100.00
59971;BME280;45825;45.434;9.116;2022-12-18T19:31:08;102110.47;;;5.59;100.00
59971;BME280;45825;45.434;9.116;2022-12-18T19:33:36;102109.44;;;5.88;100.00
59971;BME280;45825;45.434;9.116;2022-12-18T19:38:43;102115.63;;;5.77;100.00
59971;BME280;45825;45.434;9.116;2022-12-18T19:41:08;102116.38;;;5.93;100.00
59971;BME280;45825;45.434;9.116;2022-12-18T19:43:37;102118.16;;;5.83;100.00
59971;BME280;45825;45.434;9.116;2022-12-18T19:46:04;102118.34;;;5.47;100.00
59971;BME280;45825;45.434;9.116;2022-12-18T19:48:31;102118.38;;;5.45;100.00
59971;BME280;45825;45.434;9.116;2022-12-18T19:50:56;102110.50;;;5.47;100.00
59971;BME280;45825;45.434;9.116;2022-12-18T19:53:22;102118.31;;;5.58;100.00
59971;BME280;45825;45.434;9.116;2022-12-18T19:55:47;102123.56;;;5.55;100.00
59971;BME280;45825;45.434;9.116;2022-12-18T19:58:12;102130.50;;;5.61;100.00
59971;BME280;45825;45.434;9.116;2022-12-18T20:00:38;102138.31;;;5.65;100.00
59971;BME280;45825;45.434;9.116;2022-12-18T20:03:03;102136.50;;;5.73;100.00
59971;BME280;45825;45.434;9.116;2022-12-18T20:05:29;102138.25;;;5.78;100.00
59971;BME280;45825;45.434;9.116;2022-12-18T20:07:54;102133.06;;;5.67;100.00
59971;BME280;45825;45.434;9.116;2022-12-18T20:10:19;102144.34;;;5.73;100.00
59971;BME280;45825;45.434;9.116;2022-12-18T20:12:45;102151.28;;;5.82;100.00
59971;BME280;45825;45.434;9.116;2022-12-18T20:15:11;102157.38;;;5.86;100.00
59971;BME280;45825;45.434;9.116;2022-12-18T20:17:37;102154.78;;;5.80;100.00